Time;durP1;ratioP1;P1;durP2;ratioP2;P2;SDS_P1;SDS_P2;PMS_P1;PMS_P2;Temp;Humidity;BMP_temperature;BMP_pressure;BME280_temperature;BME280_humidity;BME280_pressure;Samples;Min_cycle;Max_cycle;Signal;HPM_P1;HPM_P2
2022/03/21 00:00:38;;;;;;;;;16.80;16.60;;;;;8.63;59.65;101242.78;5094767;28;8834;-62
2022/03/21 00:03:06;;;;;;;;;18.00;15.60;;;;;8.65;59.24;101248.03;5094323;28;8858;-63
2022/03/21 00:05:34;;;;;;;;;12.60;11.40;;;;;8.69;59.58;101244.25;5094946;28;8834;-62
2022/03/21 00:08:02;;;;;;;;;15.40;14.60;;;;;8.71;59.21;101247.69;5095687;28;8845;-62
2022/03/21 00:10:30;;;;;;;;;11.20;10.00;;;;;8.74;59.11;101242.22;5096138;28;8833;-63
2022/03/21 00:12:58;;;;;;;;;9.80;7.40;;;;;8.75;59.21;101255.41;5095386;28;8829;-63
2022/03/21 00:15:27;;;;;;;;;20.60;18.60;;;;;8.78;58.99;101251.75;5094397;28;8948;-63
2022/03/21 00:17:55;;;;;;;;;20.40;18.60;;;;;8.80;59.28;101256.03;5095764;28;8842;-62
2022/03/21 00:20:23;;;;;;;;;15.60;14.00;;;;;8.82;59.03;101237.38;5115394;28;8848;-62
2022/03/21 00:22:51;;;;;;;;;20.00;19.60;;;;;8.81;59.22;101233.84;5115547;28;8831;-63
2022/03/21 00:25:18;;;;;;;;;21.80;19.00;;;;;8.78;59.18;101239.34;5115500;28;8824;-63
2022/03/21 00:27:52;;;;;;;;;21.80;21.00;;;;;8.73;59.30;101241.34;5115754;28;8916;-63
2022/03/21 00:30:20;;;;;;;;;17.20;14.60;;;;;8.74;58.95;101256.34;5115530;28;8832;-62
2022/03/21 00:32:48;;;;;;;;;18.00;15.00;;;;;8.73;59.50;101259.09;5115569;28;8947;-64
2022/03/21 00:35:16;;;;;;;;;19.80;19.80;;;;;8.72;59.26;101257.38;5115373;28;8847;-62
2022/03/21 00:37:43;;;;;;;;;20.60;17.80;;;;;8.73;58.86;101254.63;5115860;28;8980;-63
2022/03/21 00:40:11;;;;;;;;;19.00;17.00;;;;;8.73;59.25;101251.97;5115326;28;8942;-63
2022/03/21 00:42:39;;;;;;;;;13.40;9.80;;;;;8.74;59.39;101261.66;5114916;28;8839;-63
2022/03/21 00:45:09;;;;;;;;;19.60;17.20;;;;;8.72;59.42;101247.63;5113832;28;8847;-63
2022/03/21 00:47:36;;;;;;;;;20.60;18.80;;;;;8.72;59.11;101249.41;5112668;28;8828;-62
2022/03/21 00:50:04;;;;;;;;;18.00;16.80;;;;;8.70;59.25;101238.00;5110981;28;8822;-63
2022/03/21 00:52:32;;;;;;;;;17.20;16.00;;;;;8.69;59.25;101245.13;5114593;28;8824;-62
2022/03/21 00:55:01;;;;;;;;;18.80;16.80;;;;;8.69;59.75;101253.09;5114897;28;9513;-63
2022/03/21 00:57:29;;;;;;;;;15.00;12.80;;;;;8.68;59.24;101255.81;5118457;28;8832;-63
2022/03/21 00:59:57;;;;;;;;;22.20;21.00;;;;;8.67;59.60;101260.25;5119400;28;8910;-63
2022/03/21 01:02:24;;;;;;;;;17.80;15.40;;;;;8.65;58.85;101258.63;5119303;28;8958;-62
2022/03/21 01:04:52;;;;;;;;;22.60;19.20;;;;;8.67;59.56;101259.41;5119278;28;8828;-62
2022/03/21 01:07:20;;;;;;;;;16.00;15.60;;;;;8.67;59.32;101259.41;5119323;28;8874;-62
2022/03/21 01:09:48;;;;;;;;;12.60;11.60;;;;;8.67;59.48;101260.25;5119038;28;8816;-63
2022/03/21 01:12:15;;;;;;;;;18.20;15.60;;;;;8.69;59.53;101257.53;5119000;28;9527;-63
2022/03/21 01:14:43;;;;;;;;;23.80;21.20;;;;;8.67;59.51;101257.59;5119230;28;8969;-63
2022/03/21 01:17:11;;;;;;;;;22.00;22.00;;;;;8.68;59.40;101267.28;5118813;28;8836;-63
2022/03/21 01:19:39;;;;;;;;;21.00;19.60;;;;;8.69;59.34;101265.50;5100247;28;8830;-64
2022/03/21 01:22:07;;;;;;;;;14.60;13.80;;;;;8.69;59.68;101269.03;5098236;28;8982;-63
2022/03/21 01:24:35;;;;;;;;;20.60;18.80;;;;;8.66;59.70;101265.66;5098292;28;8914;-62
2022/03/21 01:27:03;;;;;;;;;13.80;13.80;;;;;8.63;59.68;101260.50;5098494;28;8861;-63
2022/03/21 01:29:31;;;;;;;;;19.20;17.80;;;;;8.60;59.54;101253.53;5097960;28;8857;-63
2022/03/21 01:31:59;;;;;;;;;21.80;19.60;;;;;8.60;59.87;101252.69;5098041;28;8894;-62
2022/03/21 01:34:27;;;;;;;;;18.00;13.80;;;;;8.59;59.68;101250.97;5098127;28;8868;-64
2022/03/21 01:36:54;;;;;;;;;23.20;18.40;;;;;8.54;60.00;101266.28;5098176;28;8874;-63
2022/03/21 01:39:22;;;;;;;;;16.40;15.20;;;;;8.48;60.15;101264.78;5098580;28;8841;-63
2022/03/21 01:41:50;;;;;;;;;21.00;16.00;;;;;8.44;60.67;101252.59;5097802;28;8861;-63
2022/03/21 01:44:19;;;;;;;;;16.40;16.00;;;;;8.45;60.83;101251.66;5098135;28;8988;-63
2022/03/21 01:46:47;;;;;;;;;18.00;13.80;;;;;8.43;60.48;101261.50;5097941;28;8834;-64
2022/03/21 01:49:15;;;;;;;;;15.00;13.80;;;;;8.41;60.45;101263.38;5114611;28;8854;-63
2022/03/21 01:51:42;;;;;;;;;25.00;22.80;;;;;8.44;60.83;101263.22;5118376;28;8828;-63
2022/03/21 01:56:56;;;;;;;;;16.20;14.60;;;;;8.49;60.38;101253.22;5118465;28;8836;-63
2022/03/21 01:59:24;;;;;;;;;23.20;20.20;;;;;8.52;60.45;101249.56;5118344;28;8851;-63
2022/03/21 02:01:51;;;;;;;;;19.80;15.00;;;;;8.54;60.06;101247.69;5117869;28;8823;-63
2022/03/21 02:04:20;;;;;;;;;18.80;18.00;;;;;8.53;60.46;101248.63;5118043;28;9493;-64
2022/03/21 02:06:47;;;;;;;;;17.60;15.80;;;;;8.52;60.20;101247.75;5117514;28;8844;-63
2022/03/21 02:09:15;;;;;;;;;22.40;18.00;;;;;8.51;60.40;101246.03;5116819;28;8950;-63
2022/03/21 02:11:43;;;;;;;;;8.40;8.20;;;;;8.50;60.22;101240.84;5117592;28;9584;-64
2022/03/21 02:14:11;;;;;;;;;19.20;19.20;;;;;8.48;60.30;101237.38;5118267;28;8839;-64
2022/03/21 02:16:38;;;;;;;;;24.80;24.60;;;;;8.48;60.49;101240.03;5117682;28;8966;-64
2022/03/21 02:19:06;;;;;;;;;21.00;19.40;;;;;8.48;61.00;101240.03;5102008;28;8834;-63
2022/03/21 02:21:34;;;;;;;;;13.80;12.80;;;;;8.48;60.50;101242.69;5097355;28;8980;-63
2022/03/21 02:24:02;;;;;;;;;13.60;13.60;;;;;8.49;60.51;101249.69;5097596;28;8960;-62
2022/03/21 02:26:30;;;;;;;;;14.40;11.40;;;;;8.49;60.84;101241.75;5097116;28;8830;-62
2022/03/21 02:28:57;;;;;;;;;21.40;20.00;;;;;8.51;60.88;101231.94;5097270;28;8837;-62
2022/03/21 02:31:25;;;;;;;;;14.20;11.00;;;;;8.54;60.26;101245.91;5097294;28;8956;-63
2022/03/21 02:33:53;;;;;;;;;15.00;14.20;;;;;8.57;60.40;101237.78;5097074;28;8903;-62
2022/03/21 02:36:21;;;;;;;;;21.40;19.80;;;;;8.58;60.40;101244.78;5097184;28;8894;-62
2022/03/21 02:38:50;;;;;;;;;16.80;15.20;;;;;8.55;60.25;101239.66;5096610;28;8964;-62
2022/03/21 02:41:17;;;;;;;;;15.40;12.80;;;;;8.54;60.36;101237.94;5096802;28;8837;-65
2022/03/21 02:43:46;;;;;;;;;19.20;17.40;;;;;8.54;60.71;101243.25;5097187;28;8952;-62
2022/03/21 02:46:13;;;;;;;;;10.00;7.80;;;;;8.53;60.72;101241.50;5098263;28;8838;-63
2022/03/21 02:48:41;;;;;;;;;17.80;15.60;;;;;8.53;60.50;101248.63;5096853;28;8849;-62
2022/03/21 02:51:09;;;;;;;;;22.40;21.00;;;;;8.54;60.05;101237.94;5096037;28;9496;-62
2022/03/21 02:53:38;;;;;;;;;19.60;16.00;;;;;8.53;60.90;101238.84;5096467;28;8834;-62
2022/03/21 02:56:05;;;;;;;;;22.60;20.40;;;;;8.55;60.68;101242.31;5096267;28;8865;-62
2022/03/21 02:58:33;;;;;;;;;21.60;19.20;;;;;8.54;60.98;101240.59;5096710;28;8977;-63
2022/03/21 03:01:00;;;;;;;;;25.20;22.40;;;;;8.54;60.40;101245.91;5096463;28;9588;-64
2022/03/21 03:03:29;;;;;;;;;10.00;10.00;;;;;8.56;60.72;101237.84;5096402;28;9487;-64
2022/03/21 03:05:56;;;;;;;;;19.20;16.40;;;;;8.54;60.49;101237.94;5096493;28;8818;-63
2022/03/21 03:08:24;;;;;;;;;15.00;13.80;;;;;8.53;60.69;101249.47;5096760;28;8960;-64
2022/03/21 03:10:52;;;;;;;;;21.00;19.40;;;;;8.47;60.53;101243.63;5096716;28;8822;-66
2022/03/21 03:13:20;;;;;;;;;19.20;16.80;;;;;8.41;60.82;101247.44;5096240;28;8830;-62
2022/03/21 03:15:47;;;;;;;;;10.40;9.80;;;;;8.33;60.79;101248.75;5097785;28;8857;-63
2022/03/21 03:18:15;;;;;;;;;14.20;11.80;;;;;8.21;61.63;101244.91;5116637;28;8851;-63
2022/03/21 03:20:43;;;;;;;;;17.80;14.40;;;;;8.13;61.32;101246.22;5115279;28;8916;-63
2022/03/21 03:23:11;;;;;;;;;17.80;17.00;;;;;8.03;61.56;101243.13;5114362;28;8852;-63
2022/03/21 03:25:38;;;;;;;;;18.00;15.60;;;;;7.92;61.75;101245.44;5115310;28;8840;-63
2022/03/21 03:28:06;;;;;;;;;22.60;20.40;;;;;7.84;61.97;101246.75;5115998;28;8843;-63
2022/03/21 03:30:34;;;;;;;;;16.80;14.20;;;;;7.75;62.00;101240.06;5117106;28;8812;-63
2022/03/21 03:33:02;;;;;;;;;19.20;17.20;;;;;7.65;61.94;101245.88;5115995;28;8824;-64
2022/03/21 03:35:29;;;;;;;;;24.40;21.60;;;;;7.56;62.41;101243.66;5116203;28;9502;-63
2022/03/21 03:37:57;;;;;;;;;19.60;16.20;;;;;7.48;62.54;101240.50;5115890;28;8852;-63
2022/03/21 03:40:25;;;;;;;;;10.20;10.20;;;;;7.40;63.02;101237.34;5116666;28;8836;-63
2022/03/21 03:42:53;;;;;;;;;12.20;10.40;;;;;7.34;62.96;101244.75;5116068;28;8849;-63
2022/03/21 03:45:23;;;;;;;;;19.80;17.40;;;;;7.30;62.84;101243.16;5116174;28;8962;-62
2022/03/21 03:47:51;;;;;;;;;21.80;19.00;;;;;7.25;63.00;101243.34;5097340;28;8825;-62
2022/03/21 03:50:19;;;;;;;;;13.40;12.20;;;;;7.20;63.09;101248.00;5095795;28;9472;-63
2022/03/21 03:52:47;;;;;;;;;10.40;9.00;;;;;7.15;63.12;101243.84;5095398;28;8846;-62
2022/03/21 03:55:17;;;;;;;;;16.60;15.80;;;;;7.10;63.60;101240.53;5095577;28;8857;-62
2022/03/21 03:57:44;;;;;;;;;18.40;17.60;;;;;7.05;63.33;101240.72;5096091;28;8844;-63
2022/03/21 04:00:12;;;;;;;;;26.80;22.80;;;;;6.99;63.42;101240.16;5095610;28;8864;-63
2022/03/21 04:05:25;;;;;;;;;13.20;13.20;;;;;6.88;63.52;101245.91;5095681;28;8833;-63
2022/03/21 04:07:53;;;;;;;;;19.80;15.20;;;;;6.84;63.59;101246.13;5095719;28;8850;-64
2022/03/21 04:10:21;;;;;;;;;24.00;22.40;;;;;6.78;63.73;101251.69;5095738;28;8837;-64
2022/03/21 04:12:49;;;;;;;;;21.40;17.40;;;;;6.73;63.58;101248.34;5095577;28;8829;-63
2022/03/21 04:15:17;;;;;;;;;18.40;17.40;;;;;6.66;64.26;101252.22;5095316;28;8866;-62
2022/03/21 04:17:45;;;;;;;;;21.80;20.60;;;;;6.60;63.97;101255.97;5114643;28;8828;-63
2022/03/21 04:20:13;;;;;;;;;23.40;22.20;;;;;6.55;64.56;101257.09;5116041;28;8832;-62
2022/03/21 04:22:41;;;;;;;;;17.20;16.80;;;;;6.48;64.17;101260.91;5115562;28;8840;-63
2022/03/21 04:25:10;;;;;;;;;21.60;18.20;;;;;6.40;64.32;101261.25;5115679;28;8836;-62
2022/03/21 04:27:37;;;;;;;;;21.60;20.20;;;;;6.34;64.08;101260.63;5115604;28;8848;-63
2022/03/21 04:30:05;;;;;;;;;18.40;16.80;;;;;6.28;64.27;101263.53;5115656;28;8860;-63
2022/03/21 04:32:33;;;;;;;;;16.40;13.40;;;;;6.23;65.07;101263.72;5118777;28;8828;-62
2022/03/21 04:35:01;;;;;;;;;19.40;16.00;;;;;6.22;65.22;101266.44;5119562;28;8824;-65
2022/03/21 04:37:28;;;;;;;;;15.80;15.00;;;;;6.22;65.25;101267.28;5119474;28;8906;-62
2022/03/21 04:39:56;;;;;;;;;19.60;18.60;;;;;6.21;64.51;101257.63;5119761;28;8827;-62
2022/03/21 04:42:24;;;;;;;;;15.80;15.20;;;;;6.20;64.67;101263.84;5119807;28;8862;-63
2022/03/21 04:44:53;;;;;;;;;13.20;12.80;;;;;6.19;64.53;101256.84;5119580;28;8827;-63
2022/03/21 04:47:21;;;;;;;;;18.80;17.20;;;;;6.18;64.59;101262.19;5102717;28;8824;-63
2022/03/21 04:49:48;;;;;;;;;22.00;18.60;;;;;6.16;64.67;101264.88;5099531;28;8860;-63
2022/03/21 04:52:16;;;;;;;;;12.20;10.80;;;;;6.17;64.64;101260.47;5098415;28;8849;-63
2022/03/21 04:54:44;;;;;;;;;23.00;21.00;;;;;6.16;64.46;101258.75;5098789;28;8848;-62
2022/03/21 04:57:12;;;;;;;;;23.80;20.60;;;;;6.15;64.60;101270.25;5099137;28;8848;-63
2022/03/21 04:59:40;;;;;;;;;22.80;22.60;;;;;6.14;64.52;101268.53;5098972;28;8838;-62
2022/03/21 05:02:07;;;;;;;;;15.00;13.40;;;;;6.11;64.88;101272.16;5098437;28;8846;-63
2022/03/21 05:04:36;;;;;;;;;12.80;12.80;;;;;6.08;65.14;101274.91;5098771;28;8900;-62
2022/03/21 05:07:06;;;;;;;;;19.00;18.60;;;;;6.04;64.82;101272.44;5098212;28;8854;-62
2022/03/21 05:09:33;;;;;;;;;14.80;14.20;;;;;6.00;65.25;101277.00;5098546;28;8854;-63
2022/03/21 05:12:01;;;;;;;;;19.80;17.60;;;;;5.99;65.28;101279.72;5098395;28;8840;-62
2022/03/21 05:14:29;;;;;;;;;19.60;17.20;;;;;5.96;65.00;101278.06;5097928;28;8912;-63
2022/03/21 05:16:57;;;;;;;;;7.00;6.40;;;;;5.96;64.78;101285.09;5110256;28;8850;-62
2022/03/21 05:19:24;;;;;;;;;17.60;16.00;;;;;5.93;65.23;101287.88;5119206;28;8823;-62
2022/03/21 05:21:52;;;;;;;;;17.00;16.40;;;;;5.89;64.85;101288.91;5118672;28;8839;-62
2022/03/21 05:32:38;;;;;;;;;18.40;16.00;;;;;5.62;65.65;101296.09;5056681;28;8885;-63
2022/03/21 05:37:50;;;;;;;;;24.40;20.60;;;;;5.54;65.86;101290.22;5097622;28;8874;-63
2022/03/21 05:40:34;;;;;;;;;16.60;15.00;;;;;5.52;65.52;101293.84;5097827;28;8872;-62
2022/03/21 05:43:02;;;;;;;;;17.20;15.00;;;;;5.51;65.97;101294.78;5097930;28;9558;-62
2022/03/21 05:45:35;;;;;;;;;18.60;17.40;;;;;5.51;65.98;101298.28;5097786;28;8875;-62
2022/03/21 05:50:45;;;;;;;;;13.80;13.00;;;;;5.48;65.58;101295.75;5066301;28;8851;-63
2022/03/21 05:53:14;;;;;;;;;19.60;18.00;;;;;5.47;65.61;101303.75;5116810;28;8827;-63
2022/03/21 05:55:44;;;;;;;;;15.40;13.80;;;;;5.45;66.02;101302.91;5116777;28;8975;-64
2022/03/21 05:58:11;;;;;;;;;9.80;9.40;;;;;5.44;65.64;101317.03;5113292;28;8848;-62
2022/03/21 06:00:39;;;;;;;;;12.00;12.00;;;;;5.41;65.34;101318.00;5095467;28;8826;-63
2022/03/21 06:03:08;;;;;;;;;8.40;6.40;;;;;5.40;65.90;101320.72;5095945;28;8826;-63
2022/03/21 06:05:36;;;;;;;;;7.80;6.40;;;;;5.39;65.51;101313.72;5096184;28;8830;-62
2022/03/21 06:08:04;;;;;;;;;14.20;13.20;;;;;5.42;65.18;101314.47;5096149;28;8891;-62
2022/03/21 06:10:32;;;;;;;;;13.80;12.60;;;;;5.46;65.11;101315.22;5096873;28;8863;-63
2022/03/21 06:13:05;;;;;;;;;15.40;10.20;;;;;5.49;65.70;101315.09;5097004;28;8837;-64
2022/03/21 06:15:33;;;;;;;;;13.20;11.20;;;;;5.56;65.36;101324.53;5096569;28;8923;-63
2022/03/21 06:18:01;;;;;;;;;6.60;6.00;;;;;5.65;64.64;101325.06;5095262;28;8903;-64
2022/03/21 06:20:29;;;;;;;;;12.00;11.20;;;;;5.74;64.91;101334.41;5111696;28;8938;-63
2022/03/21 06:22:57;;;;;;;;;13.00;12.80;;;;;5.83;64.75;101331.44;5115176;28;8843;-63
2022/03/21 06:25:25;;;;;;;;;21.00;16.20;;;;;5.91;64.23;101342.59;5116082;28;8828;-62
2022/03/21 06:27:53;;;;;;;;;20.60;16.40;;;;;5.97;64.07;101335.28;5115208;28;8842;-63
2022/03/21 06:30:20;;;;;;;;;11.60;10.40;;;;;6.05;64.18;101342.91;5115393;28;8953;-64
2022/03/21 06:32:49;;;;;;;;;10.40;10.00;;;;;6.10;63.83;101335.66;5115374;28;8831;-63
2022/03/21 06:35:16;;;;;;;;;18.60;15.00;;;;;6.17;63.47;101342.44;5112257;28;8877;-62
2022/03/21 06:37:44;;;;;;;;;18.80;15.20;;;;;6.25;63.60;101343.88;5113464;28;8872;-62
2022/03/21 06:40:15;;;;;;;;;21.20;17.60;;;;;6.36;63.39;101349.59;5114311;28;8840;-63
2022/03/21 06:42:43;;;;;;;;;26.00;21.80;;;;;6.46;63.09;101352.72;5114228;28;8828;-63
2022/03/21 06:45:11;;;;;;;;;15.40;13.80;;;;;6.55;62.93;101344.41;5113050;28;9521;-63
2022/03/21 06:47:38;;;;;;;;;17.20;15.80;;;;;6.62;63.23;101346.75;5112830;28;9145;-63
2022/03/21 06:50:06;;;;;;;;;19.40;19.40;;;;;6.73;62.34;101352.47;5112314;28;8978;-64
2022/03/21 06:52:38;;;;;;;;;16.00;14.80;;;;;6.82;62.62;101348.56;5112043;28;8832;-62
2022/03/21 06:55:06;;;;;;;;;11.60;10.00;;;;;6.94;62.12;101355.97;5111055;28;8970;-62
2022/03/21 06:57:36;;;;;;;;;12.40;12.40;;;;;7.06;62.41;101352.84;5110464;28;8855;-62
2022/03/21 07:00:05;;;;;;;;;11.20;9.60;;;;;7.19;61.36;101349.56;5110586;28;8857;-63
2022/03/21 07:02:33;;;;;;;;;13.00;12.40;;;;;7.34;61.46;101358.66;5110738;28;9501;-63
2022/03/21 07:05:01;;;;;;;;;18.40;16.80;;;;;7.45;61.19;101348.44;5109179;28;9517;-62
2022/03/21 07:07:29;;;;;;;;;15.40;15.40;;;;;7.55;61.24;101355.03;5109647;28;8909;-63
2022/03/21 07:09:56;;;;;;;;;17.80;16.40;;;;;7.64;61.15;101357.31;5111060;28;8836;-62
2022/03/21 07:12:24;;;;;;;;;19.60;14.40;;;;;7.74;61.23;101357.66;5110988;28;8820;-63
2022/03/21 07:14:52;;;;;;;;;16.20;12.80;;;;;7.86;60.73;101356.25;5111172;28;9505;-63
2022/03/21 07:17:20;;;;;;;;;12.60;9.40;;;;;7.97;60.67;101356.59;5110622;28;9661;-63
2022/03/21 07:19:48;;;;;;;;;21.60;18.80;;;;;8.08;60.18;101343.72;5111443;28;8846;-63
2022/03/21 07:22:15;;;;;;;;;18.20;17.60;;;;;8.20;60.44;101349.31;5112128;28;8836;-63
2022/03/21 07:24:44;;;;;;;;;6.20;5.60;;;;;8.32;60.07;101353.19;5112349;28;8962;-63
2022/03/21 07:27:13;;;;;;;;;19.80;18.60;;;;;8.46;59.67;101356.03;5111115;28;8981;-62
2022/03/21 07:29:41;;;;;;;;;19.60;18.00;;;;;8.59;59.62;101350.06;5111208;28;8835;-64
2022/03/21 07:32:08;;;;;;;;;21.60;20.00;;;;;8.74;59.43;101351.09;5110943;28;9202;-63
2022/03/21 07:34:36;;;;;;;;;16.80;15.60;;;;;8.90;59.12;101360.88;5112087;28;9286;-62
2022/03/21 07:37:04;;;;;;;;;23.20;19.00;;;;;9.07;58.65;101360.03;5112944;28;8848;-62
2022/03/21 07:39:34;;;;;;;;;17.00;15.40;;;;;9.24;58.55;101358.22;5110372;28;9153;-62
2022/03/21 07:42:02;;;;;;;;;16.00;13.60;;;;;9.40;58.58;101364.47;5110413;28;8853;-64
2022/03/21 07:47:20;;;;;;;;;17.60;15.40;;;;;9.78;57.25;101359.81;5108149;28;8840;-62
2022/03/21 07:49:48;;;;;;;;;19.20;17.20;;;;;9.99;57.07;101364.81;5108647;28;8847;-62
2022/03/21 07:52:18;;;;;;;;;23.60;20.80;;;;;10.20;56.93;101357.47;5108683;28;8819;-62
2022/03/21 07:54:46;;;;;;;;;16.80;15.80;;;;;10.40;56.64;101355.41;5109021;28;9536;-63
2022/03/21 07:57:14;;;;;;;;;15.00;13.00;;;;;10.63;56.21;101359.44;5108900;28;9521;-62
2022/03/21 07:59:41;;;;;;;;;19.80;17.20;;;;;10.85;56.23;101357.28;5110460;28;9528;-62
2022/03/21 08:02:09;;;;;;;;;7.00;6.50;;;;;11.06;55.37;101362.19;5111473;28;8839;-63
2022/03/21 08:04:37;;;;;;;;;18.00;17.50;;;;;11.26;55.38;101367.22;5113437;28;8842;-62
2022/03/21 08:07:05;;;;;;;;;18.50;18.00;;;;;11.43;55.20;101355.50;5111520;28;8864;-62
2022/03/21 08:09:32;;;;;;;;;20.75;19.75;;;;;11.58;55.15;101363.47;5112168;28;9655;-64
2022/03/21 08:12:02;;;;;;;;;18.00;17.25;;;;;11.73;54.43;101357.22;5112643;28;8843;-62
2022/03/21 08:14:31;;;;;;;;;24.00;20.00;;;;;11.88;54.44;101353.59;5112472;28;8939;-62
2022/03/21 08:16:59;;;;;;;;;10.50;9.00;;;;;12.08;53.58;101350.53;5112033;28;8832;-62
2022/03/21 08:19:28;;;;;;;;;17.25;14.00;;;;;12.27;53.47;101356.41;5110986;28;8851;-62
2022/03/21 08:21:55;;;;;;;;;18.25;17.00;;;;;12.45;53.46;101361.41;5111616;28;8836;-62
2022/03/21 08:24:23;;;;;;;;;22.00;21.00;;;;;12.62;53.11;101365.69;5111439;28;8954;-62
2022/03/21 08:26:53;;;;;;;;;16.00;15.25;;;;;12.78;53.33;101361.91;5111771;28;8990;-62
2022/03/21 08:29:21;;;;;;;;;21.25;19.00;;;;;12.97;52.37;101366.91;5110935;28;8970;-62
2022/03/21 08:31:48;;;;;;;;;16.00;16.00;;;;;13.17;52.60;101367.31;5110298;28;8845;-62
2022/03/21 08:34:16;;;;;;;;;19.75;16.00;;;;;13.37;51.89;101369.47;5109580;28;9589;-62
2022/03/21 08:36:45;;;;;;;;;18.50;18.00;;;;;13.55;51.92;101362.00;5109478;28;8859;-63
2022/03/21 08:39:12;;;;;;;;;14.00;14.00;;;;;13.74;51.43;101368.63;5109027;28;8867;-62
2022/03/21 08:41:40;;;;;;;;;21.50;17.50;;;;;13.88;51.58;101373.88;5109443;28;8840;-63
2022/03/21 08:44:08;;;;;;;;;18.75;17.50;;;;;13.99;51.42;101373.13;5110645;28;8862;-62
2022/03/21 08:46:36;;;;;;;;;18.75;17.00;;;;;14.13;50.80;101364.97;5109082;28;8836;-62
2022/03/21 08:52:01;;;;;;;;;18.50;16.25;;;;;14.62;50.30;101361.34;5109729;28;8844;-62
2022/03/21 08:54:29;;;;;;;;;7.25;6.50;;;;;14.86;49.80;101361.34;5111743;28;8820;-62
2022/03/21 08:56:56;;;;;;;;;20.00;18.75;;;;;15.13;49.02;101364.63;5111275;28;8823;-62
2022/03/21 08:59:24;;;;;;;;;12.00;11.50;;;;;15.40;49.06;101351.81;5110627;28;8966;-62
2022/03/21 09:01:52;;;;;;;;;11.50;7.50;;;;;15.63;48.60;101350.91;5111027;28;9274;-63
2022/03/21 09:04:20;;;;;;;;;18.00;16.00;;;;;15.83;47.87;101345.66;5111206;28;8840;-63
2022/03/21 09:06:48;;;;;;;;;8.25;6.75;;;;;16.07;47.92;101341.03;5109462;28;8851;-64
2022/03/21 09:09:18;;;;;;;;;10.00;9.00;;;;;16.30;47.95;101348.97;5108933;28;8854;-63
2022/03/21 09:11:46;;;;;;;;;13.75;10.75;;;;;16.50;47.15;101336.63;5109322;28;8831;-63
2022/03/21 09:14:14;;;;;;;;;20.75;19.00;;;;;16.68;46.79;101338.66;5110954;28;8857;-64
2022/03/21 09:16:42;;;;;;;;;19.25;18.25;;;;;16.84;46.76;101340.91;5111374;28;8847;-62
2022/03/21 09:19:10;;;;;;;;;22.25;19.75;;;;;17.03;46.16;101346.47;5115922;28;8847;-63
2022/03/21 09:21:38;;;;;;;;;23.00;18.50;;;;;17.18;45.70;101347.88;5114865;28;8847;-63
2022/03/21 09:24:06;;;;;;;;;20.50;18.00;;;;;17.20;45.43;101344.06;5113641;28;8840;-63
2022/03/21 09:26:34;;;;;;;;;18.50;16.75;;;;;17.12;45.77;101345.69;5114916;28;8827;-62
2022/03/21 09:29:03;;;;;;;;;18.75;18.25;;;;;17.02;45.65;101340.22;5114028;28;8859;-64
2022/03/21 09:31:30;;;;;;;;;17.25;17.25;;;;;16.96;45.58;101331.81;5113066;28;8824;-62
2022/03/21 09:34:07;;;;;;;;;18.25;16.50;;;;;16.87;45.72;101335.28;5113576;28;8824;-63
2022/03/21 09:36:35;;;;;;;;;19.25;16.50;;;;;16.75;45.25;101334.47;5112240;28;8867;-63
2022/03/21 09:39:02;;;;;;;;;19.75;17.00;;;;;16.68;44.97;101335.97;5111310;28;8850;-62
2022/03/21 09:41:30;;;;;;;;;21.75;21.75;;;;;16.68;45.88;101330.56;5112083;28;8836;-63
2022/03/21 09:44:00;;;;;;;;;18.50;17.00;;;;;16.70;45.44;101330.47;5113204;28;8834;-63
2022/03/21 09:46:27;;;;;;;;;21.50;20.00;;;;;16.71;45.06;101340.25;5114218;28;8851;-63
2022/03/21 09:48:55;;;;;;;;;24.00;21.00;;;;;16.73;45.04;101336.44;5114513;28;8855;-63
2022/03/21 09:51:23;;;;;;;;;17.50;16.50;;;;;16.78;44.96;101342.28;5114921;28;8858;-62
2022/03/21 09:53:53;;;;;;;;;24.75;18.50;;;;;16.93;44.71;101341.00;5114179;28;8981;-63
2022/03/21 09:56:21;;;;;;;;;22.00;21.00;;;;;17.09;44.70;101336.03;5115725;28;8873;-62
2022/03/21 09:58:49;;;;;;;;;22.00;19.75;;;;;17.26;44.10;101334.63;5115284;28;8979;-63
2022/03/21 10:01:16;;;;;;;;;19.00;16.00;;;;;17.54;43.40;101334.00;5114894;28;8823;-63
2022/03/21 10:03:45;;;;;;;;;20.75;16.50;;;;;17.96;42.90;101320.34;5111585;28;8835;-63
2022/03/21 10:06:13;;;;;;;;;20.00;17.75;;;;;18.59;41.94;101316.44;5112446;28;8839;-64
2022/03/21 10:08:41;;;;;;;;;20.00;20.00;;;;;19.39;40.74;101317.88;5112316;28;9138;-63
2022/03/21 10:11:09;;;;;;;;;19.50;17.50;;;;;20.05;39.81;101306.94;5112340;28;8954;-63
2022/03/21 10:13:36;;;;;;;;;24.25;23.75;;;;;20.70;39.17;101309.38;5113111;28;8842;-63
2022/03/21 10:16:04;;;;;;;;;19.60;19.20;;;;;21.33;38.40;101313.75;5112380;28;8848;-62
2022/03/21 10:18:32;;;;;;;;;16.40;14.20;;;;;21.96;38.19;101298.94;5113958;28;9529;-63
2022/03/21 10:21:00;;;;;;;;;22.60;22.40;;;;;22.49;37.36;101310.41;5113974;28;8862;-63
2022/03/21 10:23:31;;;;;;;;;22.40;19.20;;;;;22.92;36.52;101300.13;5113718;28;8844;-64
2022/03/21 10:25:58;;;;;;;;;19.60;17.40;;;;;23.51;36.49;101293.56;5113464;28;8975;-63
2022/03/21 10:28:26;;;;;;;;;27.00;24.60;;;;;24.09;36.03;101300.41;5112834;28;9501;-63
2022/03/21 10:30:54;;;;;;;;;22.40;21.40;;;;;24.58;34.76;101290.19;5111760;28;9529;-63
2022/03/21 10:33:22;;;;;;;;;24.20;21.80;;;;;25.02;34.84;101297.53;5114397;28;8847;-63
2022/03/21 10:35:49;;;;;;;;;25.20;24.20;;;;;25.52;34.33;101299.69;5112998;28;8839;-63
2022/03/21 10:38:17;;;;;;;;;22.20;18.20;;;;;25.96;33.97;101290.59;5111821;28;9026;-63
2022/03/21 10:40:45;;;;;;;;;18.20;17.40;;;;;26.42;33.91;101287.41;5110843;28;8887;-63
2022/03/21 10:43:13;;;;;;;;;23.40;20.80;;;;;26.79;33.05;101292.72;5112508;28;8912;-63
2022/03/21 10:45:41;;;;;;;;;17.60;16.40;;;;;26.98;32.95;101293.97;5112402;28;8835;-63
2022/03/21 10:48:09;;;;;;;;;16.00;13.60;;;;;27.16;32.54;101292.53;5113312;28;8846;-64
2022/03/21 10:50:37;;;;;;;;;22.80;20.00;;;;;27.50;33.13;101289.88;5113277;28;8844;-62
2022/03/21 10:53:05;;;;;;;;;22.20;20.20;;;;;27.79;32.56;101289.72;5113100;28;8966;-61
2022/03/21 10:55:35;;;;;;;;;23.40;20.20;;;;;28.08;32.49;101285.91;5111882;28;9088;-62
2022/03/21 10:58:03;;;;;;;;;22.60;20.40;;;;;28.37;32.04;101288.41;5111890;28;8840;-61
2022/03/21 11:00:31;;;;;;;;;20.20;19.00;;;;;28.49;32.07;101284.88;5112343;28;8847;-62
2022/03/21 11:02:59;;;;;;;;;21.20;18.20;;;;;28.60;31.67;101284.25;5111583;28;8831;-63
2022/03/21 11:05:27;;;;;;;;;24.20;22.80;;;;;28.62;31.91;101289.53;5111303;28;8835;-61
2022/03/21 11:07:55;;;;;;;;;28.20;22.60;;;;;28.67;31.88;101282.38;5110612;28;8855;-61
2022/03/21 11:10:22;;;;;;;;;23.60;19.80;;;;;28.70;31.55;101284.72;5103919;28;8855;-61
2022/03/21 11:12:50;;;;;;;;;26.60;23.60;;;;;28.87;31.72;101279.69;5107192;28;9254;-61
2022/03/21 11:15:18;;;;;;;;;18.20;15.00;;;;;28.99;31.77;101283.56;5107581;28;8847;-62
2022/03/21 11:17:46;;;;;;;;;14.00;14.00;;;;;29.00;31.94;101279.75;5109699;28;9271;-61
2022/03/21 11:20:14;;;;;;;;;25.00;21.20;;;;;29.08;31.47;101277.66;5109477;28;9539;-61
2022/03/21 11:22:41;;;;;;;;;21.20;20.00;;;;;29.19;31.54;101279.78;5110523;28;9155;-61
2022/03/21 11:25:09;;;;;;;;;20.00;16.20;;;;;29.17;31.42;101281.91;5110360;28;8855;-61
2022/03/21 11:27:37;;;;;;;;;20.80;18.60;;;;;29.38;31.11;101278.09;5108480;28;8831;-61
2022/03/21 11:30:04;;;;;;;;;20.40;20.00;;;;;29.56;31.18;101270.94;5110526;28;8986;-61
2022/03/21 11:32:35;;;;;;;;;21.00;20.80;;;;;29.88;30.77;101269.22;5110984;28;9284;-61
2022/03/21 11:35:03;;;;;;;;;23.20;20.80;;;;;30.20;30.17;101265.56;5111909;28;8843;-61
2022/03/21 11:37:34;;;;;;;;;22.40;21.00;;;;;30.33;30.41;101266.34;5111291;28;9010;-62
2022/03/21 11:40:02;;;;;;;;;22.60;21.60;;;;;30.57;30.79;101270.28;5112883;28;8855;-61
2022/03/21 11:42:31;;;;;;;;;19.20;18.60;;;;;30.63;30.26;101273.00;5112110;28;8912;-61
2022/03/21 11:44:59;;;;;;;;;19.60;18.00;;;;;30.49;30.65;101274.09;5111746;28;8970;-62
2022/03/21 11:47:30;;;;;;;;;23.00;21.40;;;;;30.25;30.35;101277.59;5110603;28;8832;-61
2022/03/21 11:49:58;;;;;;;;;17.60;15.00;;;;;29.95;30.12;101276.38;5109870;28;9207;-61
2022/03/21 11:52:25;;;;;;;;;20.60;18.00;;;;;29.77;30.69;101276.22;5108179;28;8847;-62